createdAt,value
2023-04-14T00:00:15.738Z,1.07
2023-04-14T00:02:49.144Z,1.10
2023-04-14T00:05:19.311Z,1.30
2023-04-14T00:07:47.736Z,1.17
2023-04-14T00:10:16.206Z,1.37
2023-04-14T00:12:44.600Z,1.50
2023-04-14T00:15:13.107Z,0.93
2023-04-14T00:17:41.541Z,1.00
2023-04-14T00:20:10.895Z,0.80
2023-04-14T00:22:40.620Z,0.80
2023-04-14T00:25:09.770Z,0.73
2023-04-14T00:27:38.161Z,0.90
2023-04-14T00:30:07.961Z,0.80
2023-04-14T00:32:36.550Z,0.77
2023-04-14T00:35:05.290Z,0.90
2023-04-14T00:37:33.820Z,0.80
2023-04-14T00:40:03.783Z,0.80
2023-04-14T00:42:43.076Z,0.70
2023-04-14T00:45:12.609Z,1.20
2023-04-14T00:47:49.245Z,0.77
2023-04-14T00:50:19.591Z,1.10
2023-04-14T00:52:51.261Z,1.10
2023-04-14T00:55:21.886Z,0.80
2023-04-14T00:57:51.162Z,0.90
2023-04-14T01:00:20.211Z,0.90
2023-04-14T01:02:48.622Z,0.77
2023-04-14T01:05:17.383Z,0.87
2023-04-14T01:07:48.405Z,0.57
2023-04-14T01:10:17.287Z,0.53
2023-04-14T01:13:13.141Z,0.60
2023-04-14T01:15:48.465Z,0.60
2023-04-14T01:18:22.447Z,0.77
2023-04-14T01:20:53.760Z,0.50
2023-04-14T01:23:28.857Z,0.50
2023-04-14T01:26:19.585Z,0.77
2023-04-14T01:29:38.340Z,0.50
2023-04-14T01:32:10.615Z,0.67
2023-04-14T01:34:45.878Z,0.90
2023-04-14T01:37:16.825Z,1.10
2023-04-14T01:39:51.030Z,1.00
2023-04-14T01:42:28.836Z,0.70
2023-04-14T01:45:00.671Z,0.50
2023-04-14T01:47:32.390Z,0.43
2023-04-14T01:50:02.244Z,0.47
2023-04-14T01:52:32.563Z,0.53
2023-04-14T01:55:05.795Z,1.70
2023-04-14T01:57:35.734Z,1.77
2023-04-14T02:00:05.501Z,1.60
2023-04-14T02:02:37.850Z,1.30
2023-04-14T02:05:09.956Z,0.83
2023-04-14T02:07:39.983Z,1.17
2023-04-14T02:10:11.428Z,0.80
2023-04-14T02:12:52.194Z,0.60
2023-04-14T02:15:30.978Z,0.40
2023-04-14T02:18:01.956Z,0.50
2023-04-14T02:20:30.793Z,0.40
2023-04-14T02:22:59.460Z,0.27
2023-04-14T02:25:33.576Z,0.33
2023-04-14T02:28:06.477Z,0.20
2023-04-14T02:30:39.632Z,0.10
2023-04-14T02:33:13.158Z,0.53
2023-04-14T02:35:45.864Z,0.30
2023-04-14T02:38:20.477Z,0.10
2023-04-14T02:40:49.533Z,0.10
2023-04-14T02:43:21.633Z,0.30
2023-04-14T02:45:53.830Z,0.30
2023-04-14T02:48:29.210Z,0.20
2023-04-14T02:51:00.134Z,0.10
2023-04-14T02:53:31.073Z,0.20
2023-04-14T02:56:00.318Z,0.20
2023-04-14T02:58:30.275Z,0.27
2023-04-14T03:00:59.207Z,0.10
2023-04-14T03:03:31.347Z,0.40
2023-04-14T03:06:00.270Z,0.50
2023-04-14T03:08:30.156Z,0.20
2023-04-14T03:11:00.013Z,0.20
2023-04-14T03:13:32.159Z,0.30
2023-04-14T03:16:00.876Z,0.27
2023-04-14T03:18:32.115Z,0.20
2023-04-14T03:21:02.586Z,0.17
2023-04-14T03:23:32.281Z,0.20
2023-04-14T03:26:03.333Z,0.20
2023-04-14T03:28:37.031Z,0.40
2023-04-14T03:31:07.305Z,0.30
2023-04-14T03:33:38.700Z,0.27
2023-04-14T03:36:09.071Z,0.13
2023-04-14T03:38:38.041Z,0.20
2023-04-14T03:41:09.677Z,0.30
2023-04-14T03:43:39.282Z,0.30
2023-04-14T03:46:07.799Z,0.23
2023-04-14T03:48:42.638Z,0.30
2023-04-14T03:51:15.079Z,0.20
2023-04-14T03:53:46.412Z,0.20
2023-04-14T03:56:16.626Z,0.10
2023-04-14T03:58:49.402Z,0.10
2023-04-14T04:01:19.470Z,0.10
2023-04-14T04:03:49.852Z,0.20
2023-04-14T04:06:18.670Z,0.20
2023-04-14T04:08:50.631Z,0.10
2023-04-14T04:11:20.856Z,0.30
2023-04-14T04:13:50.233Z,0.30
2023-04-14T04:16:19.791Z,0.10
2023-04-14T04:18:51.324Z,0.20
2023-04-14T04:21:21.415Z,0.20
2023-04-14T04:23:53.308Z,0.33
2023-04-14T04:26:23.521Z,0.50
2023-04-14T04:28:52.530Z,0.30
2023-04-14T04:31:23.241Z,0.20
2023-04-14T04:34:03.107Z,0.30
2023-04-14T04:36:32.986Z,0.20
2023-04-14T04:39:01.633Z,0.13
2023-04-14T04:41:31.820Z,0.20
2023-04-14T04:44:00.285Z,0.17
2023-04-14T04:46:46.152Z,0.17
2023-04-14T04:49:15.895Z,0.40
2023-04-14T04:51:44.382Z,0.23
2023-04-14T04:54:12.867Z,0.10
2023-04-14T04:56:41.215Z,0.50
2023-04-14T04:59:09.939Z,0.50
2023-04-14T05:01:38.462Z,0.30
2023-04-14T05:04:07.340Z,0.23
2023-04-14T05:06:38.218Z,0.20
2023-04-14T05:09:06.974Z,0.10
2023-04-14T05:11:36.190Z,0.10
2023-04-14T05:14:04.822Z,0.90
2023-04-14T05:16:33.539Z,0.90
2023-04-14T05:19:03.041Z,0.80
2023-04-14T05:21:31.757Z,1.10
2023-04-14T05:24:01.683Z,0.73
2023-04-14T05:26:52.064Z,1.10
2023-04-14T05:29:19.591Z,0.57
2023-04-14T05:31:48.399Z,0.77
2023-04-14T05:34:16.848Z,0.63
2023-04-14T05:36:45.459Z,0.90
2023-04-14T05:39:15.160Z,0.93
2023-04-14T05:41:43.597Z,0.47
2023-04-14T05:44:11.979Z,0.30
2023-04-14T05:46:41.278Z,0.70
2023-04-14T05:49:09.744Z,0.50
2023-04-14T05:51:41.492Z,0.23
2023-04-14T05:54:09.888Z,0.23
2023-04-14T05:56:40.252Z,0.27
2023-04-14T05:59:09.040Z,0.40
2023-04-14T06:01:37.450Z,0.63
2023-04-14T06:04:06.249Z,0.40
2023-04-14T06:06:35.193Z,0.30
2023-04-14T06:09:03.660Z,0.50
2023-04-14T06:11:34.287Z,0.80
2023-04-14T06:14:05.464Z,0.37
2023-04-14T06:16:34.696Z,0.20
2023-04-14T06:19:03.733Z,0.43
2023-04-14T06:21:34.011Z,0.40
2023-04-14T06:24:02.377Z,0.40
2023-04-14T06:26:34.481Z,0.30
2023-04-14T06:29:07.469Z,0.40
2023-04-14T06:31:36.035Z,0.30
2023-04-14T06:34:04.454Z,0.53
2023-04-14T06:36:34.754Z,0.33
2023-04-14T06:39:03.439Z,0.43
2023-04-14T06:41:34.955Z,0.47
2023-04-14T06:44:04.817Z,0.30
2023-04-14T06:46:36.058Z,0.50
2023-04-14T06:49:04.847Z,0.60
2023-04-14T06:51:36.727Z,0.60
2023-04-14T06:54:05.373Z,0.60
2023-04-14T06:56:33.801Z,0.60
2023-04-14T06:59:02.473Z,0.50
2023-04-14T07:01:33.178Z,0.60
2023-04-14T07:04:07.479Z,0.47
2023-04-14T07:06:36.453Z,0.57
2023-04-14T07:09:05.030Z,0.53
2023-04-14T07:11:34.275Z,0.77
2023-04-14T07:14:03.087Z,0.30
2023-04-14T07:16:33.592Z,0.40
2023-04-14T07:19:04.360Z,0.63
2023-04-14T07:21:33.977Z,0.30
2023-04-14T07:24:02.617Z,0.30
2023-04-14T07:26:31.579Z,0.40
2023-04-14T07:29:00.030Z,0.50
2023-04-14T07:31:29.264Z,0.20
2023-04-14T07:33:59.292Z,0.37
2023-04-14T07:36:28.070Z,0.80
2023-04-14T07:38:56.466Z,0.80
2023-04-14T07:41:25.655Z,1.00
2023-04-14T07:43:55.753Z,0.63
2023-04-14T07:46:24.255Z,0.60
2023-04-14T07:48:52.702Z,2.20
2023-04-14T07:51:22.752Z,0.87
2023-04-14T07:53:53.097Z,1.60
2023-04-14T07:56:22.390Z,0.80
2023-04-14T07:58:50.887Z,2.37
2023-04-14T08:01:19.368Z,1.37
2023-04-14T08:03:48.081Z,0.70
2023-04-14T08:06:16.912Z,0.83
2023-04-14T08:08:46.649Z,0.73
2023-04-14T08:11:15.069Z,1.27
2023-04-14T08:13:44.400Z,0.80
2023-04-14T08:16:12.932Z,0.50
2023-04-14T08:18:41.542Z,0.57
2023-04-14T08:21:10.029Z,0.43
2023-04-14T08:23:38.412Z,0.53
2023-04-14T08:26:08.163Z,0.60
2023-04-14T08:28:37.262Z,0.50
2023-04-14T08:31:05.810Z,0.30
2023-04-14T08:33:34.900Z,0.70
2023-04-14T08:36:03.321Z,1.30
2023-04-14T08:38:32.853Z,1.33
2023-04-14T08:41:03.743Z,0.70
2023-04-14T08:43:36.551Z,1.10
2023-04-14T08:46:06.127Z,0.80
2023-04-14T08:48:37.756Z,0.87
2023-04-14T08:51:11.361Z,0.60
2023-04-14T08:53:45.184Z,0.40
2023-04-14T08:56:16.339Z,0.30
2023-04-14T08:58:47.325Z,0.73
2023-04-14T09:01:16.775Z,0.77
2023-04-14T09:03:46.118Z,0.53
2023-04-14T09:06:15.341Z,0.80
2023-04-14T09:08:44.550Z,0.60
2023-04-14T09:11:16.810Z,0.73
2023-04-14T09:13:50.180Z,0.70
2023-04-14T09:16:22.454Z,0.80
2023-04-14T09:18:51.121Z,0.67
2023-04-14T09:21:30.432Z,0.47
2023-04-14T09:24:11.060Z,0.30
2023-04-14T09:26:40.584Z,0.70
2023-04-14T09:29:10.414Z,0.50
2023-04-14T09:31:39.052Z,0.50
2023-04-14T09:34:16.715Z,0.57
2023-04-14T09:37:01.057Z,0.50
2023-04-14T09:39:29.737Z,0.23
2023-04-14T09:41:58.280Z,0.47
2023-04-14T09:44:28.477Z,0.40
2023-04-14T09:47:01.044Z,0.30
2023-04-14T09:49:30.326Z,0.13
2023-04-14T09:52:05.257Z,0.60
2023-04-14T09:54:35.964Z,0.73
2023-04-14T09:57:04.645Z,0.37
2023-04-14T09:59:36.860Z,1.90
2023-04-14T10:02:07.911Z,0.43
2023-04-14T10:04:37.432Z,0.60
2023-04-14T10:07:08.539Z,0.43
2023-04-14T10:09:38.526Z,0.40
2023-04-14T10:12:12.166Z,0.60
2023-04-14T10:14:42.736Z,1.50
2023-04-14T10:17:11.867Z,1.07
2023-04-14T10:19:40.761Z,1.60
2023-04-14T10:22:09.315Z,3.00
2023-04-14T10:24:38.182Z,1.30
2023-04-14T10:27:07.342Z,1.43
2023-04-14T10:29:36.073Z,1.80
2023-04-14T10:32:08.955Z,1.30
2023-04-14T10:34:42.038Z,0.90
2023-04-14T10:37:15.107Z,0.60
2023-04-14T10:39:43.828Z,0.60
2023-04-14T10:42:12.377Z,0.60
2023-04-14T10:44:40.807Z,0.50
2023-04-14T10:47:10.866Z,0.87
2023-04-14T10:49:41.324Z,0.80
2023-04-14T10:52:33.783Z,0.40
2023-04-14T10:55:08.932Z,0.53
2023-04-14T10:57:41.259Z,0.50
2023-04-14T11:00:26.251Z,0.50
2023-04-14T11:03:03.821Z,0.67
2023-04-14T11:05:34.548Z,1.00
2023-04-14T11:08:13.925Z,1.00
2023-04-14T11:10:48.158Z,1.10
2023-04-14T11:13:17.740Z,1.30
2023-04-14T11:15:57.837Z,6.83
2023-04-14T11:18:44.136Z,6.87
2023-04-14T11:21:16.843Z,1.50
2023-04-14T11:23:45.596Z,7.10
2023-04-14T11:26:14.688Z,1.10
2023-04-14T11:28:44.514Z,1.23
2023-04-14T11:31:15.549Z,0.97
2023-04-14T11:33:46.294Z,1.23
2023-04-14T11:36:14.742Z,1.60
2023-04-14T11:38:44.009Z,1.70
2023-04-14T11:41:16.312Z,1.23
2023-04-14T11:43:49.049Z,1.27
2023-04-14T11:46:20.691Z,1.40
2023-04-14T11:48:55.500Z,1.50
2023-04-14T11:51:30.679Z,1.30
2023-04-14T11:54:00.967Z,1.30
2023-04-14T11:56:31.355Z,1.60
2023-04-14T11:59:03.413Z,1.37
2023-04-14T12:01:32.626Z,1.23
2023-04-14T12:04:02.912Z,1.17
2023-04-14T12:06:38.732Z,1.20
2023-04-14T12:09:10.335Z,1.30
2023-04-14T12:11:38.963Z,1.30
2023-04-14T12:14:07.518Z,1.67
2023-04-14T12:16:36.935Z,2.00
2023-04-14T12:19:06.798Z,1.60
2023-04-14T12:21:35.260Z,1.70
2023-04-14T12:24:03.816Z,1.80
2023-04-14T12:26:32.657Z,1.37
2023-04-14T12:29:02.106Z,1.73
2023-04-14T12:31:31.243Z,2.40
2023-04-14T12:34:04.169Z,2.63
2023-04-14T12:36:49.485Z,2.97
2023-04-14T12:39:18.439Z,3.03
2023-04-14T12:41:47.182Z,3.30
2023-04-14T12:44:20.524Z,2.60
2023-04-14T12:46:52.977Z,2.00
2023-04-14T12:49:35.011Z,2.70
2023-04-14T12:52:05.806Z,2.20
2023-04-14T12:54:48.106Z,1.60
2023-04-14T12:57:16.516Z,1.90
2023-04-14T12:59:45.726Z,1.40
2023-04-14T13:02:14.333Z,1.50
2023-04-14T13:04:43.390Z,1.60
2023-04-14T13:07:13.195Z,1.57
2023-04-14T13:09:42.516Z,1.50
2023-04-14T13:12:10.951Z,1.73
2023-04-14T13:14:39.628Z,1.50
2023-04-14T13:17:10.469Z,1.90
2023-04-14T13:19:40.338Z,1.87
2023-04-14T13:22:08.719Z,1.57
2023-04-14T13:24:41.475Z,1.80
2023-04-14T13:27:10.016Z,1.47
2023-04-14T13:29:41.159Z,1.40
2023-04-14T13:32:11.469Z,1.23
2023-04-14T13:34:40.927Z,1.00
2023-04-14T13:37:09.340Z,1.00
2023-04-14T13:39:40.290Z,0.60
2023-04-14T13:42:08.751Z,0.90
2023-04-14T13:44:39.208Z,0.73
2023-04-14T13:47:07.762Z,0.83
2023-04-14T13:49:39.964Z,0.93
2023-04-14T13:52:09.469Z,1.97
2023-04-14T13:54:41.933Z,5.83
2023-04-14T13:57:10.601Z,1.00
2023-04-14T13:59:40.464Z,1.30
2023-04-14T14:02:09.044Z,1.30
2023-04-14T14:04:40.649Z,1.17
2023-04-14T14:07:09.201Z,0.90
2023-04-14T14:09:40.073Z,0.90
2023-04-14T14:12:12.672Z,1.10
2023-04-14T14:14:41.359Z,1.07
2023-04-14T14:17:10.206Z,0.93
2023-04-14T14:19:39.972Z,1.00
2023-04-14T14:22:08.519Z,1.10
2023-04-14T14:24:37.276Z,0.83
2023-04-14T14:27:07.205Z,0.77
2023-04-14T14:29:37.471Z,0.60
2023-04-14T14:32:06.513Z,0.97
2023-04-14T14:34:34.948Z,1.07
2023-04-14T14:37:03.347Z,0.80
2023-04-14T14:39:32.665Z,0.70
2023-04-14T14:42:01.265Z,0.70
2023-04-14T14:44:31.319Z,0.60
2023-04-14T14:46:59.870Z,0.60
2023-04-14T14:49:28.383Z,0.70
2023-04-14T14:51:57.107Z,0.90
2023-04-14T14:54:25.557Z,0.60
2023-04-14T14:56:53.889Z,0.80
2023-04-14T14:59:22.324Z,0.90
2023-04-14T15:01:52.111Z,1.10
2023-04-14T15:04:20.627Z,0.83
2023-04-14T15:06:49.134Z,1.00
2023-04-14T15:09:17.480Z,1.10
2023-04-14T15:11:47.168Z,1.20
2023-04-14T15:14:15.595Z,0.80
2023-04-14T15:16:44.048Z,1.10
2023-04-14T15:19:15.477Z,0.83
2023-04-14T15:21:44.271Z,2.50
2023-04-14T15:24:12.939Z,1.00
2023-04-14T15:26:41.311Z,1.20
2023-04-14T15:29:09.953Z,0.87
2023-04-14T15:31:39.925Z,1.70
2023-04-14T15:34:08.380Z,1.50
2023-04-14T15:36:38.318Z,1.07
2023-04-14T15:39:07.123Z,1.20
2023-04-14T15:41:36.360Z,1.27
2023-04-14T15:44:04.929Z,1.53
2023-04-14T15:46:33.253Z,2.10
2023-04-14T15:49:01.564Z,0.90
2023-04-14T15:51:30.047Z,0.93
2023-04-14T15:54:00.154Z,0.77
2023-04-14T15:56:29.869Z,1.00
2023-04-14T15:58:58.501Z,1.17
2023-04-14T16:01:26.937Z,8.33
2023-04-14T16:03:55.697Z,1.60
2023-04-14T16:06:24.354Z,1.33
2023-04-14T16:08:53.389Z,1.20
2023-04-14T16:11:24.015Z,1.17
2023-04-14T16:13:53.353Z,1.33
2023-04-14T16:16:22.068Z,1.00
2023-04-14T16:18:50.826Z,0.77
2023-04-14T16:21:19.278Z,0.80
2023-04-14T16:23:47.618Z,0.70
2023-04-14T16:26:17.273Z,0.80
2023-04-14T16:28:47.093Z,0.77
2023-04-14T16:31:16.109Z,0.60
2023-04-14T16:33:44.572Z,0.40
2023-04-14T16:36:12.920Z,1.20
2023-04-14T16:38:41.489Z,1.00
2023-04-14T16:41:10.097Z,1.17
2023-04-14T16:43:38.810Z,0.90
2023-04-14T16:46:08.893Z,1.30
2023-04-14T16:48:40.531Z,2.43
2023-04-14T16:51:10.863Z,0.70
2023-04-14T16:53:41.178Z,1.37
2023-04-14T16:56:11.324Z,2.00
2023-04-14T16:58:40.263Z,1.80
2023-04-14T17:01:10.276Z,2.33
2023-04-14T17:03:39.305Z,0.67
2023-04-14T17:06:07.999Z,1.47
2023-04-14T17:08:36.457Z,1.80
2023-04-14T17:11:04.940Z,2.40
2023-04-14T17:13:33.444Z,3.20
2023-04-14T17:16:09.010Z,2.57
2023-04-14T17:18:41.504Z,1.47
2023-04-14T17:21:09.960Z,1.47
2023-04-14T17:23:39.207Z,1.57
2023-04-14T17:26:07.872Z,1.60
2023-04-14T17:28:36.276Z,1.60
2023-04-14T17:31:11.342Z,1.47
2023-04-14T17:33:43.004Z,1.40
2023-04-14T17:36:16.575Z,1.23
2023-04-14T17:38:45.898Z,1.67
2023-04-14T17:41:14.839Z,2.40
2023-04-14T17:43:43.720Z,3.23
2023-04-14T17:46:12.197Z,2.73
2023-04-14T17:48:43.477Z,2.10
2023-04-14T17:51:12.600Z,2.20
2023-04-14T17:53:43.061Z,1.93
2023-04-14T17:56:12.756Z,2.13
2023-04-14T17:58:42.898Z,2.33
2023-04-14T18:01:11.796Z,3.33
2023-04-14T18:03:43.809Z,3.10
2023-04-14T18:06:12.445Z,2.60
2023-04-14T18:08:42.373Z,2.27
2023-04-14T18:11:12.099Z,2.60
2023-04-14T18:13:41.637Z,1.80
2023-04-14T18:16:10.704Z,2.20
2023-04-14T18:18:39.425Z,3.27
2023-04-14T18:21:09.536Z,3.40
2023-04-14T18:23:38.366Z,2.30
2023-04-14T18:28:39.064Z,2.40
2023-04-14T18:31:08.760Z,2.03
2023-04-14T18:33:37.172Z,1.83
2023-04-14T18:36:05.556Z,1.97
2023-04-14T18:38:35.367Z,1.07
2023-04-14T18:41:04.815Z,1.33
2023-04-14T18:43:34.003Z,1.17
2023-04-14T18:46:02.595Z,1.07
2023-04-14T18:48:31.747Z,1.10
2023-04-14T18:51:04.343Z,1.50
2023-04-14T18:53:32.876Z,2.00
2023-04-14T18:56:02.839Z,1.73
2023-04-14T18:58:31.765Z,2.60
2023-04-14T19:01:00.271Z,3.00
2023-04-14T19:03:32.085Z,3.17
2023-04-14T19:06:00.581Z,3.43
2023-04-14T19:08:29.638Z,2.43
2023-04-14T19:10:59.322Z,2.37
2023-04-14T19:13:29.172Z,2.10
2023-04-14T19:16:11.535Z,3.23
2023-04-14T19:18:41.108Z,4.93
2023-04-14T19:21:09.674Z,3.73
2023-04-14T19:23:41.190Z,3.27
2023-04-14T19:26:11.455Z,2.20
2023-04-14T19:28:42.662Z,2.10
2023-04-14T19:31:12.538Z,2.30
2023-04-14T19:33:50.051Z,2.73
2023-04-14T19:36:19.326Z,3.80
2023-04-14T19:38:47.721Z,3.37
2023-04-14T19:41:16.272Z,3.67
2023-04-14T19:43:46.231Z,4.83
2023-04-14T19:46:15.132Z,5.07
2023-04-14T19:48:45.205Z,4.67
2023-04-14T19:51:13.640Z,6.87
2023-04-14T19:53:43.453Z,6.00
2023-04-14T19:56:12.783Z,4.40
2023-04-14T19:58:41.757Z,3.53
2023-04-14T20:01:11.754Z,3.37
2023-04-14T20:04:06.378Z,2.93
2023-04-14T20:06:30.630Z,3.90
2023-04-14T20:08:59.299Z,3.17
2023-04-14T20:11:28.227Z,3.70
2023-04-14T20:13:56.718Z,3.17
2023-04-14T20:16:26.669Z,3.13
2023-04-14T20:18:55.553Z,3.00
2023-04-14T20:21:24.159Z,3.70
2023-04-14T20:23:52.572Z,3.53
2023-04-14T20:26:21.562Z,4.30
2023-04-14T20:28:50.422Z,4.40
2023-04-14T20:31:18.887Z,4.53
2023-04-14T20:33:48.946Z,4.03
2023-04-14T20:36:17.371Z,3.93
2023-04-14T20:38:45.824Z,4.20
2023-04-14T20:41:14.215Z,3.87
2023-04-14T20:43:46.612Z,4.37
2023-04-14T20:46:15.616Z,3.93
2023-04-14T20:48:44.646Z,3.80
2023-04-14T20:51:14.683Z,4.53
2023-04-14T20:53:45.214Z,3.80
2023-04-14T20:56:13.616Z,4.40
2023-04-14T20:58:43.705Z,4.13
2023-04-14T21:01:12.223Z,4.33
2023-04-14T21:03:40.752Z,3.90
2023-04-14T21:06:09.596Z,5.37
2023-04-14T21:08:40.054Z,4.13
2023-04-14T21:11:16.719Z,4.03
2023-04-14T21:15:28.493Z,3.97
2023-04-14T21:16:35.035Z,4.10
2023-04-14T21:19:04.399Z,4.03
2023-04-14T21:21:33.358Z,3.90
2023-04-14T21:24:03.369Z,3.90
2023-04-14T21:26:31.994Z,4.53
2023-04-14T21:29:01.006Z,5.33
2023-04-14T21:31:29.624Z,5.43
2023-04-14T21:33:58.040Z,4.67
2023-04-14T21:36:27.414Z,3.67
2023-04-14T21:38:56.528Z,4.30
2023-04-14T21:41:26.433Z,3.80
2023-04-14T21:43:54.803Z,4.17
2023-04-14T21:46:23.427Z,4.13
2023-04-14T21:48:51.936Z,4.00
2023-04-14T21:51:20.297Z,4.07
2023-04-14T21:53:48.771Z,3.87
2023-04-14T21:56:17.583Z,4.20
2023-04-14T21:58:47.330Z,4.27
2023-04-14T22:01:15.859Z,3.90
2023-04-14T22:03:45.109Z,3.70
2023-04-14T22:06:14.352Z,4.07
2023-04-14T22:08:44.280Z,4.30
2023-04-14T22:11:12.793Z,4.00
2023-04-14T22:13:41.255Z,3.87
2023-04-14T22:16:11.510Z,4.00
2023-04-14T22:18:40.681Z,3.17
2023-04-14T22:21:12.090Z,4.23
2023-04-14T22:23:40.611Z,3.93
2023-04-14T22:26:09.073Z,3.50
2023-04-14T22:28:37.627Z,3.70
2023-04-14T22:31:06.536Z,3.27
2023-04-14T22:33:36.428Z,3.93
2023-04-14T22:36:07.012Z,3.63
2023-04-14T22:38:35.485Z,4.13
2023-04-14T22:41:03.876Z,3.93
2023-04-14T22:43:32.326Z,4.20
2023-04-14T22:46:00.797Z,3.57
2023-04-14T22:48:29.187Z,3.93
2023-04-14T22:50:58.941Z,3.73
2023-04-14T22:53:27.408Z,3.60
2023-04-14T22:55:55.791Z,3.57
2023-04-14T22:58:24.186Z,4.30
2023-04-14T23:00:52.588Z,3.83
2023-04-14T23:03:21.363Z,3.80
2023-04-14T23:05:51.821Z,3.80
2023-04-14T23:08:21.586Z,4.13
2023-04-14T23:10:50.079Z,4.53
2023-04-14T23:13:18.461Z,4.13
2023-04-14T23:15:46.892Z,3.70
2023-04-14T23:18:21.361Z,3.73
2023-04-14T23:20:49.710Z,4.47
2023-04-14T23:23:18.053Z,4.47
2023-04-14T23:25:47.880Z,4.23
2023-04-14T23:28:16.398Z,3.90
2023-04-14T23:30:45.054Z,4.17
2023-04-14T23:33:13.757Z,3.83
2023-04-14T23:35:42.391Z,3.90
2023-04-14T23:38:10.733Z,3.70
2023-04-14T23:40:39.144Z,4.20
2023-04-14T23:43:08.922Z,3.77
2023-04-14T23:45:37.881Z,3.90
2023-04-14T23:48:06.845Z,4.10
2023-04-14T23:50:58.893Z,4.27
2023-04-14T23:53:23.931Z,3.87
2023-04-14T23:55:52.932Z,3.77
2023-04-14T23:58:26.861Z,3.57
